sensor_id;sensor_type;location;lat;lon;timestamp;P1;durP1;ratioP1;P2;durP2;ratioP2
595;SDS011;19946;49.306;11.350;2022-07-29T00:00:15;3.80;;;3.80;;
595;SDS011;19946;49.306;11.350;2022-07-29T00:03:15;3.90;;;3.90;;
595;SDS011;19946;49.306;11.350;2022-07-29T00:06:16;3.90;;;3.90;;
595;SDS011;19946;49.306;11.350;2022-07-29T00:09:16;4.10;;;4.10;;
595;SDS011;19946;49.306;11.350;2022-07-29T00:16:37;4.00;;;4.00;;
595;SDS011;19946;49.306;11.350;2022-07-29T00:19:38;3.90;;;3.90;;
595;SDS011;19946;49.306;11.350;2022-07-29T00:22:38;3.90;;;3.90;;
595;SDS011;19946;49.306;11.350;2022-07-29T00:25:39;4.00;;;4.00;;
595;SDS011;19946;49.306;11.350;2022-07-29T00:28:39;4.40;;;4.40;;
595;SDS011;19946;49.306;11.350;2022-07-29T00:31:40;4.00;;;4.00;;
595;SDS011;19946;49.306;11.350;2022-07-29T00:34:40;4.33;;;4.33;;
595;SDS011;19946;49.306;11.350;2022-07-29T00:37:59;3.90;;;3.90;;
595;SDS011;19946;49.306;11.350;2022-07-29T00:45:35;4.20;;;4.20;;
595;SDS011;19946;49.306;11.350;2022-07-29T00:52:59;4.00;;;4.00;;
595;SDS011;19946;49.306;11.350;2022-07-29T00:56:01;3.80;;;3.80;;
595;SDS011;19946;49.306;11.350;2022-07-29T00:59:01;3.80;;;3.80;;
595;SDS011;19946;49.306;11.350;2022-07-29T01:06:23;4.00;;;4.00;;
595;SDS011;19946;49.306;11.350;2022-07-29T01:09:24;3.90;;;3.90;;
595;SDS011;19946;49.306;11.350;2022-07-29T01:12:26;4.00;;;4.00;;
595;SDS011;19946;49.306;11.350;2022-07-29T01:31:24;4.00;;;4.00;;
595;SDS011;19946;49.306;11.350;2022-07-29T01:34:35;3.80;;;3.80;;
595;SDS011;19946;49.306;11.350;2022-07-29T01:37:50;4.00;;;4.00;;
595;SDS011;19946;49.306;11.350;2022-07-29T01:40:59;4.03;;;4.03;;
595;SDS011;19946;49.306;11.350;2022-07-29T01:55:38;4.50;;;4.50;;
595;SDS011;19946;49.306;11.350;2022-07-29T02:07:01;4.37;;;4.37;;
595;SDS011;19946;49.306;11.350;2022-07-29T02:10:07;4.43;;;4.33;;
595;SDS011;19946;49.306;11.350;2022-07-29T02:13:10;4.20;;;4.20;;
595;SDS011;19946;49.306;11.350;2022-07-29T02:20:34;4.43;;;4.43;;
595;SDS011;19946;49.306;11.350;2022-07-29T02:23:36;4.30;;;4.30;;
595;SDS011;19946;49.306;11.350;2022-07-29T02:26:39;4.20;;;4.20;;
595;SDS011;19946;49.306;11.350;2022-07-29T02:29:41;4.53;;;4.53;;
595;SDS011;19946;49.306;11.350;2022-07-29T02:32:45;4.20;;;4.20;;
595;SDS011;19946;49.306;11.350;2022-07-29T02:35:48;4.07;;;4.07;;
595;SDS011;19946;49.306;11.350;2022-07-29T02:38:49;3.80;;;3.80;;
595;SDS011;19946;49.306;11.350;2022-07-29T02:41:52;3.60;;;3.60;;
595;SDS011;19946;49.306;11.350;2022-07-29T02:44:55;3.70;;;3.70;;
595;SDS011;19946;49.306;11.350;2022-07-29T02:47:56;3.80;;;3.80;;
595;SDS011;19946;49.306;11.350;2022-07-29T02:51:45;4.00;;;4.00;;
595;SDS011;19946;49.306;11.350;2022-07-29T02:54:35;3.90;;;3.90;;
595;SDS011;19946;49.306;11.350;2022-07-29T03:02:02;3.80;;;3.80;;
595;SDS011;19946;49.306;11.350;2022-07-29T03:05:05;3.60;;;3.60;;
595;SDS011;19946;49.306;11.350;2022-07-29T03:08:09;3.30;;;3.30;;
595;SDS011;19946;49.306;11.350;2022-07-29T03:11:11;3.80;;;3.80;;
595;SDS011;19946;49.306;11.350;2022-07-29T03:14:13;3.50;;;3.50;;
595;SDS011;19946;49.306;11.350;2022-07-29T03:17:13;3.50;;;3.50;;
595;SDS011;19946;49.306;11.350;2022-07-29T03:24:37;3.50;;;3.50;;
595;SDS011;19946;49.306;11.350;2022-07-29T03:32:03;3.40;;;3.40;;
595;SDS011;19946;49.306;11.350;2022-07-29T03:35:05;3.70;;;3.70;;
595;SDS011;19946;49.306;11.350;2022-07-29T03:42:30;3.70;;;3.70;;
595;SDS011;19946;49.306;11.350;2022-07-29T03:45:32;3.70;;;3.70;;
595;SDS011;19946;49.306;11.350;2022-07-29T03:48:34;3.30;;;3.30;;
595;SDS011;19946;49.306;11.350;2022-07-29T03:51:38;3.77;;;3.77;;
595;SDS011;19946;49.306;11.350;2022-07-29T03:54:39;3.67;;;3.67;;
595;SDS011;19946;49.306;11.350;2022-07-29T04:02:02;3.77;;;3.77;;
595;SDS011;19946;49.306;11.350;2022-07-29T04:09:26;4.00;;;4.00;;
595;SDS011;19946;49.306;11.350;2022-07-29T04:12:26;3.70;;;3.70;;
595;SDS011;19946;49.306;11.350;2022-07-29T04:19:49;3.80;;;3.80;;
595;SDS011;19946;49.306;11.350;2022-07-29T04:27:11;3.90;;;3.90;;
595;SDS011;19946;49.306;11.350;2022-07-29T04:34:33;3.53;;;3.53;;
595;SDS011;19946;49.306;11.350;2022-07-29T04:37:33;3.93;;;3.93;;
595;SDS011;19946;49.306;11.350;2022-07-29T04:40:33;3.70;;;3.70;;
595;SDS011;19946;49.306;11.350;2022-07-29T04:43:34;3.90;;;3.90;;
595;SDS011;19946;49.306;11.350;2022-07-29T04:46:35;4.03;;;4.03;;
595;SDS011;19946;49.306;11.350;2022-07-29T04:49:38;3.80;;;3.80;;
595;SDS011;19946;49.306;11.350;2022-07-29T04:52:39;4.03;;;4.03;;
595;SDS011;19946;49.306;11.350;2022-07-29T04:55:39;3.90;;;3.90;;
595;SDS011;19946;49.306;11.350;2022-07-29T04:58:39;3.80;;;3.80;;
595;SDS011;19946;49.306;11.350;2022-07-29T05:01:40;3.90;;;3.90;;
595;SDS011;19946;49.306;11.350;2022-07-29T05:04:40;4.30;;;4.30;;
595;SDS011;19946;49.306;11.350;2022-07-29T05:07:40;4.77;;;4.77;;
595;SDS011;19946;49.306;11.350;2022-07-29T05:10:41;4.40;;;4.40;;
595;SDS011;19946;49.306;11.350;2022-07-29T05:13:41;4.27;;;4.27;;
595;SDS011;19946;49.306;11.350;2022-07-29T05:16:42;3.77;;;3.77;;
595;SDS011;19946;49.306;11.350;2022-07-29T05:20:00;3.70;;;3.70;;
595;SDS011;19946;49.306;11.350;2022-07-29T05:23:01;4.00;;;4.00;;
595;SDS011;19946;49.306;11.350;2022-07-29T05:26:01;3.93;;;3.93;;
595;SDS011;19946;49.306;11.350;2022-07-29T05:33:00;3.87;;;3.87;;
595;SDS011;19946;49.306;11.350;2022-07-29T05:36:01;3.70;;;3.70;;
595;SDS011;19946;49.306;11.350;2022-07-29T05:39:01;4.10;;;4.10;;
595;SDS011;19946;49.306;11.350;2022-07-29T05:42:02;4.10;;;4.10;;
595;SDS011;19946;49.306;11.350;2022-07-29T05:49:24;4.20;;;4.20;;
595;SDS011;19946;49.306;11.350;2022-07-29T05:52:24;4.30;;;4.30;;
595;SDS011;19946;49.306;11.350;2022-07-29T05:55:25;4.40;;;4.40;;
595;SDS011;19946;49.306;11.350;2022-07-29T06:02:47;4.20;;;4.20;;
595;SDS011;19946;49.306;11.350;2022-07-29T06:05:47;4.07;;;4.07;;
595;SDS011;19946;49.306;11.350;2022-07-29T06:13:09;4.10;;;4.10;;
595;SDS011;19946;49.306;11.350;2022-07-29T06:20:32;3.80;;;3.80;;
595;SDS011;19946;49.306;11.350;2022-07-29T06:27:54;3.80;;;3.80;;
595;SDS011;19946;49.306;11.350;2022-07-29T06:35:17;3.90;;;3.90;;
595;SDS011;19946;49.306;11.350;2022-07-29T06:38:17;3.97;;;3.97;;
595;SDS011;19946;49.306;11.350;2022-07-29T06:41:17;3.80;;;3.80;;
595;SDS011;19946;49.306;11.350;2022-07-29T06:48:00;3.50;;;3.50;;
595;SDS011;19946;49.306;11.350;2022-07-29T06:51:01;3.50;;;3.50;;
595;SDS011;19946;49.306;11.350;2022-07-29T07:02:22;3.50;;;3.50;;
595;SDS011;19946;49.306;11.350;2022-07-29T07:05:22;3.30;;;3.30;;
595;SDS011;19946;49.306;11.350;2022-07-29T07:08:23;3.40;;;3.40;;
595;SDS011;19946;49.306;11.350;2022-07-29T07:11:23;3.87;;;3.87;;
595;SDS011;19946;49.306;11.350;2022-07-29T07:14:24;3.30;;;3.30;;
595;SDS011;19946;49.306;11.350;2022-07-29T07:21:48;3.50;;;3.50;;
595;SDS011;19946;49.306;11.350;2022-07-29T07:25:00;3.50;;;3.50;;
595;SDS011;19946;49.306;11.350;2022-07-29T07:28:01;3.40;;;3.40;;
595;SDS011;19946;49.306;11.350;2022-07-29T07:31:01;3.43;;;3.43;;
595;SDS011;19946;49.306;11.350;2022-07-29T07:34:02;3.70;;;3.70;;
595;SDS011;19946;49.306;11.350;2022-07-29T07:41:25;3.70;;;3.70;;
595;SDS011;19946;49.306;11.350;2022-07-29T07:52:23;3.93;;;3.90;;
595;SDS011;19946;49.306;11.350;2022-07-29T07:55:24;3.80;;;3.80;;
595;SDS011;19946;49.306;11.350;2022-07-29T08:02:47;3.80;;;3.80;;
595;SDS011;19946;49.306;11.350;2022-07-29T08:10:10;3.60;;;3.50;;
595;SDS011;19946;49.306;11.350;2022-07-29T08:17:32;3.90;;;3.90;;
595;SDS011;19946;49.306;11.350;2022-07-29T08:24:54;3.30;;;3.30;;
595;SDS011;19946;49.306;11.350;2022-07-29T08:27:55;4.20;;;4.00;;
595;SDS011;19946;49.306;11.350;2022-07-29T08:35:18;4.23;;;4.07;;
595;SDS011;19946;49.306;11.350;2022-07-29T08:38:20;3.60;;;3.60;;
595;SDS011;19946;49.306;11.350;2022-07-29T08:41:20;3.60;;;3.60;;
595;SDS011;19946;49.306;11.350;2022-07-29T08:52:25;3.80;;;3.70;;
595;SDS011;19946;49.306;11.350;2022-07-29T08:55:28;3.60;;;3.47;;
595;SDS011;19946;49.306;11.350;2022-07-29T09:06:31;3.43;;;3.43;;
595;SDS011;19946;49.306;11.350;2022-07-29T09:09:34;3.73;;;3.63;;
595;SDS011;19946;49.306;11.350;2022-07-29T09:16:57;3.30;;;3.30;;
595;SDS011;19946;49.306;11.350;2022-07-29T09:20:08;4.57;;;4.27;;
595;SDS011;19946;49.306;11.350;2022-07-29T09:23:09;3.90;;;3.80;;
595;SDS011;19946;49.306;11.350;2022-07-29T09:29:45;3.60;;;3.50;;
595;SDS011;19946;49.306;11.350;2022-07-29T09:37:07;3.63;;;3.53;;
595;SDS011;19946;49.306;11.350;2022-07-29T09:40:26;3.90;;;3.80;;
595;SDS011;19946;49.306;11.350;2022-07-29T09:47:49;4.07;;;3.97;;
595;SDS011;19946;49.306;11.350;2022-07-29T09:50:50;3.83;;;3.80;;
595;SDS011;19946;49.306;11.350;2022-07-29T09:58:20;4.93;;;4.63;;
595;SDS011;19946;49.306;11.350;2022-07-29T10:01:27;3.90;;;3.80;;
595;SDS011;19946;49.306;11.350;2022-07-29T10:11:44;6.10;;;4.47;;
595;SDS011;19946;49.306;11.350;2022-07-29T10:15:23;3.90;;;3.70;;
595;SDS011;19946;49.306;11.350;2022-07-29T10:27:09;4.20;;;4.10;;
595;SDS011;19946;49.306;11.350;2022-07-29T10:30:10;9.33;;;5.00;;
595;SDS011;19946;49.306;11.350;2022-07-29T10:44:19;4.43;;;4.10;;
595;SDS011;19946;49.306;11.350;2022-07-29T10:56:07;5.20;;;4.70;;
595;SDS011;19946;49.306;11.350;2022-07-29T10:59:24;3.70;;;3.50;;
595;SDS011;19946;49.306;11.350;2022-07-29T11:05:51;6.23;;;3.90;;
595;SDS011;19946;49.306;11.350;2022-07-29T11:20:41;4.47;;;4.20;;
595;SDS011;19946;49.306;11.350;2022-07-29T11:28:09;5.00;;;4.57;;
595;SDS011;19946;49.306;11.350;2022-07-29T11:34:49;5.20;;;4.70;;
595;SDS011;19946;49.306;11.350;2022-07-29T11:56:07;4.63;;;4.43;;
595;SDS011;19946;49.306;11.350;2022-07-29T11:59:09;4.60;;;4.20;;
595;SDS011;19946;49.306;11.350;2022-07-29T12:18:36;4.00;;;3.87;;
595;SDS011;19946;49.306;11.350;2022-07-29T12:21:46;4.57;;;4.27;;
595;SDS011;19946;49.306;11.350;2022-07-29T12:24:47;4.23;;;4.03;;
595;SDS011;19946;49.306;11.350;2022-07-29T12:27:57;4.07;;;3.87;;
595;SDS011;19946;49.306;11.350;2022-07-29T12:30:59;3.93;;;3.83;;
595;SDS011;19946;49.306;11.350;2022-07-29T12:34:00;3.57;;;3.43;;
595;SDS011;19946;49.306;11.350;2022-07-29T12:37:01;4.00;;;3.90;;
595;SDS011;19946;49.306;11.350;2022-07-29T12:40:02;3.60;;;3.40;;
595;SDS011;19946;49.306;11.350;2022-07-29T12:47:26;3.60;;;3.50;;
595;SDS011;19946;49.306;11.350;2022-07-29T12:50:29;3.37;;;3.30;;
595;SDS011;19946;49.306;11.350;2022-07-29T12:53:31;3.13;;;3.13;;
595;SDS011;19946;49.306;11.350;2022-07-29T13:00:23;3.30;;;3.20;;
595;SDS011;19946;49.306;11.350;2022-07-29T13:03:24;3.43;;;3.37;;
595;SDS011;19946;49.306;11.350;2022-07-29T13:10:47;6.60;;;3.93;;
595;SDS011;19946;49.306;11.350;2022-07-29T13:18:34;3.10;;;3.10;;
595;SDS011;19946;49.306;11.350;2022-07-29T13:25:05;3.20;;;3.20;;
595;SDS011;19946;49.306;11.350;2022-07-29T13:28:06;3.10;;;3.10;;
595;SDS011;19946;49.306;11.350;2022-07-29T13:35:28;3.07;;;3.00;;
595;SDS011;19946;49.306;11.350;2022-07-29T13:38:29;3.13;;;3.13;;
595;SDS011;19946;49.306;11.350;2022-07-29T13:41:30;3.00;;;3.00;;
595;SDS011;19946;49.306;11.350;2022-07-29T13:44:30;3.10;;;3.10;;
595;SDS011;19946;49.306;11.350;2022-07-29T13:47:30;3.20;;;3.13;;
595;SDS011;19946;49.306;11.350;2022-07-29T13:50:31;3.97;;;3.70;;
595;SDS011;19946;49.306;11.350;2022-07-29T13:53:31;3.13;;;3.07;;
595;SDS011;19946;49.306;11.350;2022-07-29T13:56:32;2.83;;;2.83;;
595;SDS011;19946;49.306;11.350;2022-07-29T13:59:33;3.03;;;3.00;;
595;SDS011;19946;49.306;11.350;2022-07-29T14:02:34;3.20;;;3.10;;
595;SDS011;19946;49.306;11.350;2022-07-29T14:05:34;3.27;;;3.17;;
595;SDS011;19946;49.306;11.350;2022-07-29T14:08:35;2.80;;;2.80;;
595;SDS011;19946;49.306;11.350;2022-07-29T14:11:35;2.50;;;2.50;;
595;SDS011;19946;49.306;11.350;2022-07-29T14:14:36;3.07;;;3.07;;
595;SDS011;19946;49.306;11.350;2022-07-29T14:25:19;3.20;;;3.10;;
595;SDS011;19946;49.306;11.350;2022-07-29T14:32:47;3.20;;;3.10;;
595;SDS011;19946;49.306;11.350;2022-07-29T14:39:35;4.03;;;3.93;;
595;SDS011;19946;49.306;11.350;2022-07-29T14:42:36;3.60;;;3.60;;
595;SDS011;19946;49.306;11.350;2022-07-29T14:45:37;4.00;;;3.90;;
595;SDS011;19946;49.306;11.350;2022-07-29T14:48:37;4.00;;;3.90;;
595;SDS011;19946;49.306;11.350;2022-07-29T14:55:59;3.60;;;3.60;;
595;SDS011;19946;49.306;11.350;2022-07-29T14:59:01;3.50;;;3.50;;
595;SDS011;19946;49.306;11.350;2022-07-29T15:06:29;4.73;;;4.50;;
595;SDS011;19946;49.306;11.350;2022-07-29T15:20:46;4.13;;;3.83;;
595;SDS011;19946;49.306;11.350;2022-07-29T15:23:47;4.60;;;4.10;;
595;SDS011;19946;49.306;11.350;2022-07-29T15:26:47;3.80;;;3.70;;
595;SDS011;19946;49.306;11.350;2022-07-29T15:29:47;4.00;;;3.80;;
595;SDS011;19946;49.306;11.350;2022-07-29T15:32:48;3.67;;;3.57;;
595;SDS011;19946;49.306;11.350;2022-07-29T15:39:08;4.00;;;3.83;;
595;SDS011;19946;49.306;11.350;2022-07-29T15:46:30;4.00;;;3.90;;
595;SDS011;19946;49.306;11.350;2022-07-29T15:49:50;4.37;;;4.17;;
595;SDS011;19946;49.306;11.350;2022-07-29T15:52:50;4.30;;;4.20;;
595;SDS011;19946;49.306;11.350;2022-07-29T15:55:51;4.97;;;4.63;;
595;SDS011;19946;49.306;11.350;2022-07-29T15:58:51;4.30;;;4.10;;
595;SDS011;19946;49.306;11.350;2022-07-29T16:01:51;4.23;;;4.13;;
595;SDS011;19946;49.306;11.350;2022-07-29T16:04:52;3.83;;;3.83;;
595;SDS011;19946;49.306;11.350;2022-07-29T16:07:52;4.70;;;4.50;;
595;SDS011;19946;49.306;11.350;2022-07-29T16:10:53;3.73;;;3.73;;
595;SDS011;19946;49.306;11.350;2022-07-29T16:18:15;4.10;;;4.00;;
595;SDS011;19946;49.306;11.350;2022-07-29T16:25:38;5.00;;;4.50;;
595;SDS011;19946;49.306;11.350;2022-07-29T16:28:39;4.10;;;3.90;;
595;SDS011;19946;49.306;11.350;2022-07-29T16:39:57;2.80;;;2.80;;
595;SDS011;19946;49.306;11.350;2022-07-29T16:46:16;2.47;;;2.47;;
595;SDS011;19946;49.306;11.350;2022-07-29T16:49:16;2.50;;;2.50;;
595;SDS011;19946;49.306;11.350;2022-07-29T16:52:19;2.30;;;2.20;;
595;SDS011;19946;49.306;11.350;2022-07-29T16:55:19;3.03;;;2.47;;
595;SDS011;19946;49.306;11.350;2022-07-29T16:58:20;2.10;;;2.00;;
595;SDS011;19946;49.306;11.350;2022-07-29T17:01:21;1.80;;;1.80;;
595;SDS011;19946;49.306;11.350;2022-07-29T17:04:37;2.20;;;1.90;;
595;SDS011;19946;49.306;11.350;2022-07-29T17:07:38;1.60;;;1.60;;
595;SDS011;19946;49.306;11.350;2022-07-29T17:10:39;1.60;;;1.50;;
595;SDS011;19946;49.306;11.350;2022-07-29T17:13:40;1.30;;;1.30;;
595;SDS011;19946;49.306;11.350;2022-07-29T17:16:40;1.50;;;1.50;;
595;SDS011;19946;49.306;11.350;2022-07-29T17:23:14;1.33;;;1.33;;
595;SDS011;19946;49.306;11.350;2022-07-29T17:26:14;2.13;;;1.63;;
595;SDS011;19946;49.306;11.350;2022-07-29T17:37:23;1.70;;;1.60;;
595;SDS011;19946;49.306;11.350;2022-07-29T17:40:38;2.83;;;1.43;;
595;SDS011;19946;49.306;11.350;2022-07-29T17:43:39;1.03;;;1.03;;
595;SDS011;19946;49.306;11.350;2022-07-29T17:46:39;0.80;;;0.80;;
595;SDS011;19946;49.306;11.350;2022-07-29T17:49:39;0.87;;;0.87;;
595;SDS011;19946;49.306;11.350;2022-07-29T17:52:40;0.80;;;0.80;;
595;SDS011;19946;49.306;11.350;2022-07-29T17:55:40;0.87;;;0.87;;
595;SDS011;19946;49.306;11.350;2022-07-29T17:58:41;0.90;;;0.90;;
595;SDS011;19946;49.306;11.350;2022-07-29T18:06:05;1.00;;;1.00;;
595;SDS011;19946;49.306;11.350;2022-07-29T18:09:05;1.10;;;1.10;;
595;SDS011;19946;49.306;11.350;2022-07-29T18:16:28;1.10;;;1.10;;
595;SDS011;19946;49.306;11.350;2022-07-29T18:23:00;1.30;;;1.30;;
595;SDS011;19946;49.306;11.350;2022-07-29T18:26:01;1.20;;;1.20;;
595;SDS011;19946;49.306;11.350;2022-07-29T18:29:02;1.60;;;1.60;;
595;SDS011;19946;49.306;11.350;2022-07-29T18:32:04;3.50;;;2.43;;
595;SDS011;19946;49.306;11.350;2022-07-29T18:35:04;1.60;;;1.60;;
595;SDS011;19946;49.306;11.350;2022-07-29T18:38:05;1.50;;;1.50;;
595;SDS011;19946;49.306;11.350;2022-07-29T18:41:05;1.50;;;1.50;;
595;SDS011;19946;49.306;11.350;2022-07-29T18:44:06;1.50;;;1.50;;
595;SDS011;19946;49.306;11.350;2022-07-29T18:47:08;1.40;;;1.40;;
595;SDS011;19946;49.306;11.350;2022-07-29T18:50:08;2.47;;;2.20;;
595;SDS011;19946;49.306;11.350;2022-07-29T18:53:11;2.00;;;2.00;;
595;SDS011;19946;49.306;11.350;2022-07-29T18:56:11;2.00;;;1.90;;
595;SDS011;19946;49.306;11.350;2022-07-29T18:59:11;1.80;;;1.80;;
595;SDS011;19946;49.306;11.350;2022-07-29T19:02:15;1.40;;;1.40;;
595;SDS011;19946;49.306;11.350;2022-07-29T19:05:16;2.40;;;1.83;;
595;SDS011;19946;49.306;11.350;2022-07-29T19:08:16;1.60;;;1.60;;
595;SDS011;19946;49.306;11.350;2022-07-29T19:11:17;2.00;;;1.90;;
595;SDS011;19946;49.306;11.350;2022-07-29T19:18:09;1.30;;;1.30;;
595;SDS011;19946;49.306;11.350;2022-07-29T19:21:09;1.97;;;1.87;;
595;SDS011;19946;49.306;11.350;2022-07-29T19:24:10;1.50;;;1.50;;
595;SDS011;19946;49.306;11.350;2022-07-29T19:27:10;1.23;;;1.23;;
595;SDS011;19946;49.306;11.350;2022-07-29T19:30:11;6.63;;;2.17;;
595;SDS011;19946;49.306;11.350;2022-07-29T19:37:33;1.37;;;1.03;;
595;SDS011;19946;49.306;11.350;2022-07-29T19:40:34;0.77;;;0.77;;
595;SDS011;19946;49.306;11.350;2022-07-29T19:43:34;0.60;;;0.60;;
595;SDS011;19946;49.306;11.350;2022-07-29T19:46:35;1.33;;;0.90;;
595;SDS011;19946;49.306;11.350;2022-07-29T19:49:35;0.60;;;0.60;;
595;SDS011;19946;49.306;11.350;2022-07-29T19:56:14;1.03;;;0.87;;
595;SDS011;19946;49.306;11.350;2022-07-29T19:59:15;0.80;;;0.80;;
595;SDS011;19946;49.306;11.350;2022-07-29T20:02:15;0.90;;;0.90;;
595;SDS011;19946;49.306;11.350;2022-07-29T20:05:16;6.33;;;2.03;;
595;SDS011;19946;49.306;11.350;2022-07-29T20:08:17;1.10;;;1.10;;
595;SDS011;19946;49.306;11.350;2022-07-29T20:11:17;0.90;;;0.90;;
595;SDS011;19946;49.306;11.350;2022-07-29T20:14:17;0.90;;;0.90;;
595;SDS011;19946;49.306;11.350;2022-07-29T20:17:20;1.03;;;1.03;;
595;SDS011;19946;49.306;11.350;2022-07-29T20:20:23;1.50;;;1.40;;
595;SDS011;19946;49.306;11.350;2022-07-29T20:23:24;1.50;;;1.50;;
595;SDS011;19946;49.306;11.350;2022-07-29T20:26:25;1.50;;;1.50;;
595;SDS011;19946;49.306;11.350;2022-07-29T20:33:01;1.30;;;1.30;;
595;SDS011;19946;49.306;11.350;2022-07-29T20:36:01;1.60;;;1.60;;
595;SDS011;19946;49.306;11.350;2022-07-29T20:39:01;1.40;;;1.40;;
595;SDS011;19946;49.306;11.350;2022-07-29T20:42:02;1.77;;;1.77;;
595;SDS011;19946;49.306;11.350;2022-07-29T20:45:03;1.70;;;1.70;;
595;SDS011;19946;49.306;11.350;2022-07-29T20:48:04;2.33;;;2.23;;
595;SDS011;19946;49.306;11.350;2022-07-29T20:51:04;2.00;;;2.00;;
595;SDS011;19946;49.306;11.350;2022-07-29T20:54:05;1.60;;;1.60;;
595;SDS011;19946;49.306;11.350;2022-07-29T20:57:07;1.90;;;1.90;;
595;SDS011;19946;49.306;11.350;2022-07-29T21:00:08;2.17;;;2.10;;
595;SDS011;19946;49.306;11.350;2022-07-29T21:03:09;1.77;;;1.77;;
595;SDS011;19946;49.306;11.350;2022-07-29T21:06:09;1.80;;;1.70;;
595;SDS011;19946;49.306;11.350;2022-07-29T21:09:10;1.60;;;1.60;;
595;SDS011;19946;49.306;11.350;2022-07-29T21:12:11;1.47;;;1.47;;
595;SDS011;19946;49.306;11.350;2022-07-29T21:15:13;4.23;;;2.07;;
595;SDS011;19946;49.306;11.350;2022-07-29T21:18:17;1.40;;;1.40;;
595;SDS011;19946;49.306;11.350;2022-07-29T21:21:29;1.60;;;1.50;;
595;SDS011;19946;49.306;11.350;2022-07-29T21:24:29;1.90;;;1.90;;
595;SDS011;19946;49.306;11.350;2022-07-29T21:31:52;1.70;;;1.70;;
595;SDS011;19946;49.306;11.350;2022-07-29T21:34:52;3.07;;;2.77;;
595;SDS011;19946;49.306;11.350;2022-07-29T21:37:52;2.20;;;2.20;;
595;SDS011;19946;49.306;11.350;2022-07-29T21:40:53;2.33;;;2.23;;
595;SDS011;19946;49.306;11.350;2022-07-29T21:43:54;2.80;;;2.03;;
595;SDS011;19946;49.306;11.350;2022-07-29T21:46:54;1.70;;;1.70;;
595;SDS011;19946;49.306;11.350;2022-07-29T21:49:55;1.80;;;1.80;;
595;SDS011;19946;49.306;11.350;2022-07-29T21:52:55;1.50;;;1.50;;
595;SDS011;19946;49.306;11.350;2022-07-29T21:55:55;2.00;;;2.00;;
595;SDS011;19946;49.306;11.350;2022-07-29T21:58:56;2.20;;;2.20;;
595;SDS011;19946;49.306;11.350;2022-07-29T22:01:56;2.37;;;2.37;;
595;SDS011;19946;49.306;11.350;2022-07-29T22:09:21;2.13;;;2.13;;
595;SDS011;19946;49.306;11.350;2022-07-29T22:12:24;2.50;;;2.50;;
595;SDS011;19946;49.306;11.350;2022-07-29T22:15:24;2.57;;;2.57;;
595;SDS011;19946;49.306;11.350;2022-07-29T22:18:25;2.80;;;2.80;;
595;SDS011;19946;49.306;11.350;2022-07-29T22:21:25;3.30;;;3.30;;
595;SDS011;19946;49.306;11.350;2022-07-29T22:24:26;4.03;;;3.93;;
595;SDS011;19946;49.306;11.350;2022-07-29T22:27:26;2.77;;;2.77;;
595;SDS011;19946;49.306;11.350;2022-07-29T22:30:27;2.77;;;2.77;;
595;SDS011;19946;49.306;11.350;2022-07-29T22:33:27;3.17;;;3.17;;
595;SDS011;19946;49.306;11.350;2022-07-29T22:36:27;2.50;;;2.50;;
595;SDS011;19946;49.306;11.350;2022-07-29T22:39:28;2.20;;;2.20;;
